createdAt,value
2022-12-10T00:01:31.661Z,4.10
2022-12-10T00:04:00.195Z,4.10
2022-12-10T00:06:31.368Z,4.10
2022-12-10T00:09:00.622Z,4.10
2022-12-10T00:11:29.263Z,4.10
2022-12-10T00:13:58.007Z,4.10
2022-12-10T00:16:31.693Z,4.10
2022-12-10T00:18:59.727Z,4.10
2022-12-10T00:21:31.554Z,4.10
2022-12-10T00:24:00.549Z,4.10
2022-12-10T00:26:30.103Z,4.10
2022-12-10T00:28:58.800Z,4.10
2022-12-10T00:31:30.489Z,4.10
2022-12-10T00:34:00.505Z,4.10
2022-12-10T00:36:30.577Z,4.00
2022-12-10T00:38:59.057Z,3.80
2022-12-10T00:41:27.300Z,3.80
2022-12-10T00:43:55.225Z,3.70
2022-12-10T00:46:23.274Z,3.60
2022-12-10T00:48:52.732Z,3.50
2022-12-10T00:51:22.854Z,3.60
2022-12-10T00:53:52.404Z,3.60
2022-12-10T00:56:22.362Z,3.50
2022-12-10T00:58:51.522Z,3.40
2022-12-10T01:01:22.350Z,3.40
2022-12-10T01:03:58.602Z,3.50
2022-12-10T01:06:28.613Z,3.60
2022-12-10T01:08:59.249Z,3.70
2022-12-10T01:11:32.923Z,3.80
2022-12-10T01:14:01.448Z,3.80
2022-12-10T01:16:29.560Z,3.90
2022-12-10T01:19:00.500Z,4.00
2022-12-10T01:21:29.722Z,4.00
2022-12-10T01:23:58.986Z,4.10
2022-12-10T01:26:29.220Z,4.10
2022-12-10T01:28:57.769Z,4.10
2022-12-10T01:31:27.817Z,4.10
2022-12-10T01:33:56.454Z,4.10
2022-12-10T01:36:28.203Z,4.10
2022-12-10T01:38:56.179Z,4.20
2022-12-10T01:41:28.164Z,4.20
2022-12-10T01:43:59.330Z,4.20
2022-12-10T01:46:29.626Z,4.20
2022-12-10T01:48:57.961Z,4.20
2022-12-10T01:51:32.795Z,4.10
2022-12-10T01:54:01.664Z,4.10
2022-12-10T01:56:30.123Z,4.10
2022-12-10T01:58:59.152Z,4.10
2022-12-10T02:01:32.751Z,4.10
2022-12-10T02:04:11.008Z,4.10
2022-12-10T02:06:50.358Z,4.10
2022-12-10T02:09:27.653Z,4.10
2022-12-10T02:12:04.606Z,4.10
2022-12-10T02:14:41.117Z,4.10
2022-12-10T02:17:13.494Z,4.10
2022-12-10T02:20:01.920Z,4.10
2022-12-10T02:22:43.754Z,4.10
2022-12-10T02:25:15.026Z,4.10
2022-12-10T02:27:49.818Z,4.00
2022-12-10T02:30:19.688Z,4.00
2022-12-10T02:32:50.696Z,4.00
2022-12-10T02:35:22.416Z,4.00
2022-12-10T02:37:53.476Z,4.00
2022-12-10T02:40:25.450Z,4.00
2022-12-10T02:42:54.416Z,4.00
2022-12-10T02:45:25.798Z,4.00
2022-12-10T02:47:57.960Z,4.00
2022-12-10T02:50:26.190Z,4.00
2022-12-10T02:52:54.369Z,4.00
2022-12-10T02:55:22.553Z,4.10
2022-12-10T02:58:09.020Z,4.10
2022-12-10T03:00:47.700Z,4.10
2022-12-10T03:03:32.564Z,4.10
2022-12-10T03:06:06.858Z,4.00
2022-12-10T03:08:41.762Z,4.00
2022-12-10T03:11:16.776Z,4.10
2022-12-10T03:13:52.414Z,4.10
2022-12-10T03:16:23.846Z,4.10
2022-12-10T03:18:55.770Z,4.20
2022-12-10T03:21:24.938Z,4.20
2022-12-10T03:23:53.470Z,3.90
2022-12-10T03:26:23.244Z,3.80
2022-12-10T03:28:54.521Z,3.70
2022-12-10T03:31:24.503Z,3.60
2022-12-10T03:33:53.890Z,3.70
2022-12-10T03:36:23.676Z,3.60
2022-12-10T03:38:52.350Z,3.70
2022-12-10T03:41:20.584Z,3.80
2022-12-10T03:43:56.038Z,3.90
2022-12-10T03:46:26.966Z,3.90
2022-12-10T03:48:55.416Z,3.90
2022-12-10T03:51:24.014Z,4.00
2022-12-10T03:53:52.624Z,4.00
2022-12-10T03:56:22.067Z,4.10
2022-12-10T03:58:50.525Z,4.10
2022-12-10T04:01:18.839Z,4.20
2022-12-10T04:03:48.206Z,4.20
2022-12-10T04:06:18.258Z,4.20
2022-12-10T04:08:46.665Z,4.20
2022-12-10T04:11:15.884Z,4.20
2022-12-10T04:14:02.306Z,4.20
2022-12-10T04:16:32.269Z,4.20
2022-12-10T04:19:04.498Z,4.20
2022-12-10T04:22:05.881Z,4.30
2022-12-10T04:24:53.228Z,4.30
2022-12-10T04:27:24.575Z,4.30
2022-12-10T04:29:52.963Z,4.20
2022-12-10T04:32:21.960Z,4.20
2022-12-10T04:34:51.582Z,4.20
2022-12-10T04:37:22.142Z,4.20
2022-12-10T04:39:52.571Z,4.20
2022-12-10T04:42:21.027Z,4.30
2022-12-10T04:44:49.055Z,4.20
2022-12-10T04:47:17.409Z,4.10
2022-12-10T04:49:45.373Z,4.10
2022-12-10T04:52:16.967Z,4.20
2022-12-10T04:54:45.762Z,4.10
2022-12-10T04:57:16.131Z,4.20
2022-12-10T04:59:44.275Z,4.20
2022-12-10T05:02:12.416Z,4.20
2022-12-10T05:04:40.460Z,4.10
2022-12-10T05:07:08.464Z,4.10
2022-12-10T05:09:37.884Z,3.90
2022-12-10T05:12:06.332Z,3.70
2022-12-10T05:14:34.773Z,3.90
2022-12-10T05:17:02.726Z,3.90
2022-12-10T05:19:30.678Z,3.90
2022-12-10T05:22:16.723Z,3.90
2022-12-10T05:24:46.027Z,3.90
2022-12-10T05:27:14.075Z,3.90
2022-12-10T05:29:42.052Z,3.90
2022-12-10T05:32:10.185Z,3.90
2022-12-10T05:34:38.232Z,3.90
2022-12-10T05:37:06.239Z,4.00
2022-12-10T05:39:34.247Z,4.10
2022-12-10T05:42:03.669Z,4.10
2022-12-10T05:44:31.582Z,4.10
2022-12-10T05:46:59.609Z,4.20
2022-12-10T05:49:27.598Z,4.20
2022-12-10T05:51:58.209Z,4.20
2022-12-10T05:54:26.178Z,4.30
2022-12-10T05:56:55.466Z,4.20
2022-12-10T05:59:24.822Z,4.30
2022-12-10T06:01:54.969Z,4.30
2022-12-10T06:04:22.957Z,4.20
2022-12-10T06:06:51.048Z,4.30
2022-12-10T06:09:19.011Z,4.30
2022-12-10T06:11:47.056Z,4.30
2022-12-10T06:14:15.023Z,4.20
2022-12-10T06:16:45.276Z,4.30
2022-12-10T06:19:13.210Z,4.30
2022-12-10T06:21:41.271Z,4.30
2022-12-10T06:24:09.474Z,4.30
2022-12-10T06:26:37.522Z,4.30
2022-12-10T06:29:06.678Z,4.30
2022-12-10T06:31:34.949Z,4.30
2022-12-10T06:34:04.346Z,4.30
2022-12-10T06:36:32.379Z,4.20
2022-12-10T06:39:00.511Z,4.20
2022-12-10T06:41:28.732Z,4.20
2022-12-10T06:43:59.313Z,4.20
2022-12-10T06:46:29.693Z,4.20
2022-12-10T06:48:57.816Z,4.20
2022-12-10T06:51:27.263Z,4.20
2022-12-10T06:53:55.658Z,4.20
2022-12-10T06:56:26.035Z,4.20
2022-12-10T06:58:54.155Z,4.20
2022-12-10T07:01:27.178Z,4.20
2022-12-10T07:03:57.229Z,4.20
2022-12-10T07:06:29.108Z,4.20
2022-12-10T07:08:57.117Z,4.30
2022-12-10T07:11:26.528Z,4.20
2022-12-10T07:13:54.733Z,4.30
2022-12-10T07:16:26.246Z,4.30
2022-12-10T07:18:55.229Z,4.30
2022-12-10T07:21:25.108Z,4.30
2022-12-10T07:23:56.003Z,4.20
2022-12-10T07:26:24.312Z,4.20
2022-12-10T07:28:53.775Z,4.20
2022-12-10T07:31:23.586Z,4.30
2022-12-10T07:33:52.397Z,4.40
2022-12-10T07:36:23.407Z,4.40
2022-12-10T07:38:51.458Z,4.30
2022-12-10T07:41:21.380Z,4.40
2022-12-10T07:43:50.575Z,4.40
2022-12-10T07:46:24.102Z,4.40
2022-12-10T07:48:52.663Z,4.40
2022-12-10T07:51:23.483Z,4.40
2022-12-10T07:53:54.734Z,4.40
2022-12-10T07:56:25.487Z,4.40
2022-12-10T07:58:54.344Z,4.40
2022-12-10T08:01:24.872Z,4.40
2022-12-10T08:03:54.152Z,4.40
2022-12-10T08:06:23.439Z,4.50
2022-12-10T08:08:52.934Z,4.50
2022-12-10T08:11:23.766Z,4.50
2022-12-10T08:13:56.923Z,4.50
2022-12-10T08:16:27.599Z,4.60
2022-12-10T08:18:56.707Z,4.50
2022-12-10T08:21:26.645Z,4.60
2022-12-10T08:23:56.120Z,4.60
2022-12-10T08:26:27.243Z,4.60
2022-12-10T08:28:58.405Z,4.60
2022-12-10T08:31:31.844Z,4.60
2022-12-10T08:34:03.715Z,4.60
2022-12-10T08:36:32.667Z,4.60
2022-12-10T08:39:00.674Z,4.60
2022-12-10T08:41:29.982Z,4.70
2022-12-10T08:43:58.836Z,4.60
2022-12-10T08:46:27.613Z,4.70
2022-12-10T08:48:55.612Z,4.70
2022-12-10T08:51:23.937Z,4.70
2022-12-10T08:53:51.952Z,4.70
2022-12-10T08:56:20.342Z,4.60
2022-12-10T08:58:49.693Z,4.60
2022-12-10T09:01:20.679Z,4.60
2022-12-10T09:03:48.962Z,4.60
2022-12-10T09:06:19.679Z,4.60
2022-12-10T09:08:48.158Z,4.50
2022-12-10T09:11:19.552Z,4.60
2022-12-10T09:13:49.218Z,4.60
2022-12-10T09:16:17.758Z,4.60
2022-12-10T09:18:46.320Z,4.70
2022-12-10T09:21:17.255Z,4.60
2022-12-10T09:23:45.641Z,4.70
2022-12-10T09:26:16.105Z,4.70
2022-12-10T09:28:45.189Z,4.70
2022-12-10T09:31:20.155Z,4.60
2022-12-10T09:33:49.737Z,4.40
2022-12-10T09:36:17.916Z,4.40
2022-12-10T09:38:47.070Z,4.40
2022-12-10T09:41:45.261Z,4.30
2022-12-10T09:44:22.077Z,4.40
2022-12-10T09:46:54.994Z,4.40
2022-12-10T09:49:34.671Z,4.40
2022-12-10T09:52:06.016Z,4.40
2022-12-10T09:54:36.514Z,4.50
2022-12-10T09:57:07.386Z,4.50
2022-12-10T09:59:40.679Z,4.60
2022-12-10T10:02:26.642Z,4.50
2022-12-10T10:05:11.091Z,4.50
2022-12-10T10:07:44.322Z,4.60
2022-12-10T10:10:23.215Z,4.70
2022-12-10T10:12:53.908Z,4.70
2022-12-10T10:15:28.417Z,4.70
2022-12-10T10:18:01.170Z,4.60
2022-12-10T10:20:29.350Z,4.60
2022-12-10T10:22:59.850Z,4.60
2022-12-10T10:25:28.441Z,4.50
2022-12-10T10:27:56.771Z,4.60
2022-12-10T10:30:26.382Z,4.60
2022-12-10T10:32:57.946Z,4.50
2022-12-10T10:35:32.806Z,4.60
2022-12-10T10:38:03.518Z,4.70
2022-12-10T10:40:37.733Z,4.80
2022-12-10T10:43:05.738Z,4.90
2022-12-10T10:45:42.454Z,5.00
2022-12-10T10:48:17.425Z,5.00
2022-12-10T10:50:48.151Z,5.10
2022-12-10T10:53:28.620Z,5.10
2022-12-10T10:55:59.571Z,5.20
2022-12-10T10:58:28.848Z,5.20
2022-12-10T11:00:59.661Z,5.20
2022-12-10T11:03:31.458Z,5.20
2022-12-10T11:06:00.519Z,5.20
2022-12-10T11:08:31.762Z,5.20
2022-12-10T11:11:04.392Z,5.30
2022-12-10T11:13:36.517Z,5.30
2022-12-10T11:16:13.464Z,5.40
2022-12-10T11:18:44.555Z,5.40
2022-12-10T11:21:22.739Z,5.40
2022-12-10T11:23:54.487Z,5.50
2022-12-10T11:26:50.579Z,5.40
2022-12-10T11:29:32.127Z,5.50
2022-12-10T11:32:16.776Z,5.50
2022-12-10T11:34:59.104Z,5.50
2022-12-10T11:37:35.136Z,5.50
2022-12-10T11:40:30.083Z,5.50
2022-12-10T11:43:15.257Z,5.50
2022-12-10T11:45:54.688Z,5.50
2022-12-10T11:48:40.537Z,5.40
2022-12-10T11:51:19.612Z,5.50
2022-12-10T11:53:57.509Z,5.50
2022-12-10T11:56:30.630Z,5.50
2022-12-10T11:59:07.077Z,5.50
2022-12-10T12:01:48.943Z,5.40
2022-12-10T12:04:29.095Z,5.30
2022-12-10T12:07:10.049Z,5.30
2022-12-10T12:09:50.891Z,5.20
2022-12-10T12:12:28.653Z,5.20
2022-12-10T12:15:00.620Z,5.20
2022-12-10T12:17:32.883Z,5.20
2022-12-10T12:20:05.150Z,5.20
2022-12-10T12:22:37.809Z,5.30
2022-12-10T12:25:13.181Z,5.20
2022-12-10T12:27:45.443Z,5.30
2022-12-10T12:30:17.509Z,5.40
2022-12-10T12:32:59.751Z,5.40
2022-12-10T12:35:38.522Z,5.40
2022-12-10T12:38:21.016Z,5.40
2022-12-10T12:40:53.692Z,5.40
2022-12-10T12:43:25.060Z,5.30
2022-12-10T12:45:56.354Z,5.30
2022-12-10T12:48:31.063Z,5.30
2022-12-10T12:51:04.068Z,5.20
2022-12-10T12:53:35.437Z,5.20
2022-12-10T12:56:08.258Z,5.10
2022-12-10T12:58:42.956Z,5.10
2022-12-10T13:01:21.344Z,5.10
2022-12-10T13:03:51.548Z,5.10
2022-12-10T13:06:24.192Z,5.10
2022-12-10T13:09:00.075Z,5.10
2022-12-10T13:11:33.928Z,5.20
2022-12-10T13:14:31.788Z,5.20
2022-12-10T13:17:10.964Z,5.20
2022-12-10T13:19:38.989Z,5.20
2022-12-10T13:22:12.272Z,5.20
2022-12-10T13:25:04.759Z,5.20
2022-12-10T13:27:34.952Z,5.20
2022-12-10T13:30:07.167Z,5.20
2022-12-10T13:32:48.124Z,5.20
2022-12-10T13:35:43.597Z,5.20
2022-12-10T13:38:21.620Z,5.20
2022-12-10T13:41:18.245Z,5.20
2022-12-10T13:44:09.022Z,5.20
2022-12-10T13:46:52.873Z,5.30
2022-12-10T13:49:22.972Z,5.30
2022-12-10T13:51:57.787Z,5.40
2022-12-10T13:54:48.383Z,5.30
2022-12-10T13:57:35.856Z,5.30
2022-12-10T14:00:12.647Z,5.30
2022-12-10T14:02:56.835Z,5.30
2022-12-10T14:05:41.373Z,5.30
2022-12-10T14:08:17.126Z,5.30
2022-12-10T14:10:45.461Z,5.30
2022-12-10T14:13:18.145Z,5.30
2022-12-10T14:15:53.802Z,5.30
2022-12-10T14:18:24.378Z,5.40
2022-12-10T14:20:55.082Z,5.30
2022-12-10T14:23:41.206Z,5.30
2022-12-10T14:26:14.486Z,5.30
2022-12-10T14:28:45.763Z,5.30
2022-12-10T14:31:20.781Z,5.30
2022-12-10T14:33:51.500Z,5.30
2022-12-10T14:36:28.352Z,5.30
2022-12-10T14:38:57.116Z,5.30
2022-12-10T14:41:26.320Z,5.40
2022-12-10T14:43:56.112Z,5.40
2022-12-10T14:46:29.425Z,5.50
2022-12-10T14:48:57.631Z,5.50
2022-12-10T14:51:27.651Z,5.40
2022-12-10T14:53:56.561Z,5.40
2022-12-10T14:56:28.992Z,5.40
2022-12-10T14:59:06.085Z,5.50
2022-12-10T15:01:37.152Z,5.40
2022-12-10T15:04:08.391Z,5.40
2022-12-10T15:06:38.394Z,5.40
2022-12-10T15:09:11.671Z,5.40
2022-12-10T15:11:39.941Z,5.40
2022-12-10T15:14:17.408Z,5.40
2022-12-10T15:16:47.675Z,5.40
2022-12-10T15:19:22.380Z,5.30
2022-12-10T15:21:51.685Z,5.40
2022-12-10T15:24:23.213Z,5.40
2022-12-10T15:26:52.659Z,5.40
2022-12-10T15:29:37.259Z,5.30
2022-12-10T15:32:16.159Z,5.30
2022-12-10T15:34:47.163Z,5.20
2022-12-10T15:37:20.608Z,5.20
2022-12-10T15:39:52.169Z,5.20
2022-12-10T15:42:38.001Z,5.20
2022-12-10T15:45:20.139Z,5.20
2022-12-10T15:47:48.079Z,5.20
2022-12-10T15:50:16.463Z,5.20
2022-12-10T15:52:45.919Z,5.20
2022-12-10T15:55:15.669Z,5.20
2022-12-10T15:57:45.884Z,5.20
2022-12-10T16:00:22.047Z,5.20
2022-12-10T16:02:52.669Z,5.30
2022-12-10T16:05:22.983Z,5.30
2022-12-10T16:07:53.659Z,5.30
2022-12-10T16:10:23.856Z,5.40
2022-12-10T16:12:59.377Z,5.30
2022-12-10T16:15:31.972Z,5.40
2022-12-10T16:18:00.047Z,5.40
2022-12-10T16:20:31.978Z,5.30
2022-12-10T16:23:00.880Z,5.30
2022-12-10T16:25:31.051Z,5.20
2022-12-10T16:27:59.538Z,5.30
2022-12-10T16:30:38.863Z,5.30
2022-12-10T16:33:09.259Z,5.30
2022-12-10T16:35:39.388Z,5.30
2022-12-10T16:38:10.744Z,5.30
2022-12-10T16:40:40.121Z,5.40
2022-12-10T16:43:08.584Z,5.40
2022-12-10T16:45:39.951Z,5.30
2022-12-10T16:48:08.185Z,5.20
2022-12-10T16:50:36.492Z,5.20
2022-12-10T16:53:13.863Z,5.30
2022-12-10T16:55:41.872Z,5.40
2022-12-10T16:58:11.831Z,5.40
2022-12-10T17:00:41.271Z,5.40
2022-12-10T17:03:22.911Z,5.50
2022-12-10T17:05:52.661Z,5.50
2022-12-10T17:08:21.710Z,5.50
2022-12-10T17:11:08.567Z,5.40
2022-12-10T17:13:37.818Z,5.40
2022-12-10T17:16:07.882Z,5.40
2022-12-10T17:18:36.676Z,5.20
2022-12-10T17:21:04.913Z,5.20
2022-12-10T17:23:32.883Z,5.30
2022-12-10T17:26:02.243Z,5.10
2022-12-10T17:28:31.997Z,5.10
2022-12-10T17:31:00.219Z,5.10
2022-12-10T17:33:29.790Z,5.10
2022-12-10T17:35:57.955Z,5.20
2022-12-10T17:38:27.694Z,5.30
2022-12-10T17:40:56.094Z,5.10
2022-12-10T17:43:25.268Z,5.10
2022-12-10T17:45:53.876Z,5.10
2022-12-10T17:48:21.879Z,5.20
2022-12-10T17:50:51.303Z,5.30
2022-12-10T17:53:19.263Z,5.30
2022-12-10T17:55:50.596Z,5.20
2022-12-10T17:58:21.443Z,5.10
2022-12-10T18:00:49.917Z,5.20
2022-12-10T18:03:17.936Z,5.30
2022-12-10T18:05:46.651Z,5.30
2022-12-10T18:08:18.909Z,5.40
2022-12-10T18:10:47.349Z,5.30
2022-12-10T18:13:15.305Z,5.10
2022-12-10T18:15:43.719Z,5.00
2022-12-10T18:18:11.808Z,4.90
2022-12-10T18:20:42.195Z,5.00
2022-12-10T18:23:12.216Z,5.10
2022-12-10T18:25:43.528Z,5.20
2022-12-10T18:28:32.651Z,5.00
2022-12-10T18:31:02.735Z,5.10
2022-12-10T18:33:39.894Z,5.20
2022-12-10T18:36:08.560Z,5.00
2022-12-10T18:38:36.563Z,4.90
2022-12-10T18:41:06.066Z,4.90
2022-12-10T18:43:34.013Z,4.90
2022-12-10T18:46:02.073Z,5.00
2022-12-10T18:48:30.074Z,5.10
2022-12-10T18:50:58.144Z,5.10
2022-12-10T18:53:26.152Z,5.20
2022-12-10T18:55:54.164Z,5.20
2022-12-10T18:58:23.616Z,5.20
2022-12-10T19:00:51.772Z,5.20
2022-12-10T19:03:20.048Z,5.20
2022-12-10T19:05:48.145Z,5.10
2022-12-10T19:08:16.179Z,5.10
2022-12-10T19:10:44.736Z,5.10
2022-12-10T19:13:12.673Z,5.20
2022-12-10T19:15:43.116Z,5.20
2022-12-10T19:18:13.797Z,5.20
2022-12-10T19:20:42.260Z,5.20
2022-12-10T19:23:10.566Z,5.20
2022-12-10T19:25:38.663Z,5.20
2022-12-10T19:28:06.955Z,5.20
2022-12-10T19:30:35.042Z,5.20
2022-12-10T19:33:04.598Z,5.20
2022-12-10T19:35:32.867Z,5.20
2022-12-10T19:38:00.950Z,5.20
2022-12-10T19:40:31.502Z,5.20
2022-12-10T19:43:00.353Z,5.20
2022-12-10T19:45:29.610Z,5.10
2022-12-10T19:47:58.195Z,5.00
2022-12-10T19:50:29.851Z,5.10
2022-12-10T19:53:00.988Z,5.10
2022-12-10T19:55:29.535Z,5.10
2022-12-10T19:57:57.721Z,5.10
2022-12-10T20:00:28.390Z,5.20
2022-12-10T20:02:56.409Z,5.20
2022-12-10T20:05:24.515Z,5.10
2022-12-10T20:07:54.936Z,5.10
2022-12-10T20:10:26.265Z,5.20
2022-12-10T20:12:54.726Z,5.20
2022-12-10T20:15:24.900Z,5.20
2022-12-10T20:17:54.195Z,5.20
2022-12-10T20:20:24.351Z,5.10
2022-12-10T20:22:53.793Z,5.10
2022-12-10T20:25:23.251Z,5.10
2022-12-10T20:27:52.186Z,5.10
2022-12-10T20:30:23.317Z,5.10
2022-12-10T20:32:52.329Z,5.10
2022-12-10T20:35:21.613Z,5.10
2022-12-10T20:37:51.542Z,5.10
2022-12-10T20:40:32.036Z,5.00
2022-12-10T20:43:00.948Z,5.00
2022-12-10T20:45:29.235Z,5.00
2022-12-10T20:47:57.504Z,5.00
2022-12-10T20:50:25.996Z,5.00
2022-12-10T20:52:54.071Z,5.00
2022-12-10T20:55:23.404Z,5.00
2022-12-10T20:57:51.474Z,5.00
2022-12-10T21:00:21.715Z,5.10
2022-12-10T21:02:50.877Z,5.00
2022-12-10T21:05:19.172Z,5.10
2022-12-10T21:07:49.369Z,5.00
2022-12-10T21:10:34.382Z,5.00
2022-12-10T21:13:04.416Z,5.00
2022-12-10T21:15:32.511Z,5.00
2022-12-10T21:18:00.603Z,5.00
2022-12-10T21:20:29.695Z,4.90
2022-12-10T21:22:57.918Z,4.90
2022-12-10T21:25:25.963Z,5.00
2022-12-10T21:27:53.944Z,5.00
2022-12-10T21:30:23.379Z,5.00
2022-12-10T21:32:51.345Z,5.00
2022-12-10T21:35:20.172Z,5.00
2022-12-10T21:37:48.246Z,5.00
2022-12-10T21:40:16.975Z,5.00
2022-12-10T21:42:58.945Z,5.00
2022-12-10T21:45:29.766Z,5.00
2022-12-10T21:47:59.420Z,5.00
2022-12-10T21:50:27.558Z,5.00
2022-12-10T21:52:55.989Z,5.00
2022-12-10T21:55:29.938Z,5.00
2022-12-10T21:57:58.832Z,5.00
2022-12-10T22:00:28.287Z,4.90
2022-12-10T22:02:56.317Z,4.90
2022-12-10T22:05:24.904Z,4.90
2022-12-10T22:07:52.923Z,4.90
2022-12-10T22:10:21.087Z,4.90
2022-12-10T22:12:49.131Z,4.90
2022-12-10T22:15:17.231Z,4.90
2022-12-10T22:17:46.684Z,4.90
2022-12-10T22:20:14.619Z,4.90
2022-12-10T22:22:44.720Z,4.80
2022-12-10T22:25:12.816Z,4.80
2022-12-10T22:27:41.929Z,4.80
2022-12-10T22:30:12.147Z,4.80
2022-12-10T22:32:43.772Z,4.80
2022-12-10T22:35:13.845Z,4.80
2022-12-10T22:37:42.095Z,4.80
2022-12-10T22:40:10.922Z,4.80
2022-12-10T22:42:39.372Z,4.80
2022-12-10T22:45:09.695Z,4.80
2022-12-10T22:47:38.263Z,4.80
2022-12-10T22:50:07.848Z,4.80
2022-12-10T22:52:37.265Z,4.80
2022-12-10T22:55:06.006Z,4.80
2022-12-10T22:57:34.236Z,4.80
2022-12-10T23:00:02.239Z,4.70
2022-12-10T23:02:30.366Z,4.70
2022-12-10T23:04:58.371Z,4.70
2022-12-10T23:07:26.281Z,4.70
2022-12-10T23:09:55.615Z,4.60
2022-12-10T23:12:41.011Z,4.60
2022-12-10T23:15:10.101Z,4.60
2022-12-10T23:17:38.278Z,4.60
2022-12-10T23:20:07.446Z,4.60
2022-12-10T23:22:35.500Z,4.50
2022-12-10T23:25:05.920Z,4.60
2022-12-10T23:27:34.097Z,4.50
2022-12-10T23:30:02.044Z,4.50
2022-12-10T23:32:30.287Z,4.50
2022-12-10T23:34:58.289Z,4.50
2022-12-10T23:37:26.353Z,4.60
2022-12-10T23:39:54.805Z,4.60
2022-12-10T23:42:24.332Z,4.60
2022-12-10T23:44:52.286Z,4.60
2022-12-10T23:47:20.348Z,4.60
2022-12-10T23:49:48.383Z,4.60
2022-12-10T23:52:16.609Z,4.60
2022-12-10T23:54:44.936Z,4.60
2022-12-10T23:57:13.036Z,4.60
2022-12-10T23:59:42.391Z,4.60
